Time;durP1;ratioP1;P1;durP2;ratioP2;P2;SDS_P1;SDS_P2;PMS_P1;PMS_P2;Temp;Humidity;BMP_temperature;BMP_pressure;BME280_temperature;BME280_humidity;BME280_pressure;Samples;Min_cycle;Max_cycle;Signal;HPM_P1;HPM_P2
2023/06/04 00:00:24;;;;;;;3.47;2.22;;;;;;;17.57;75.92;101596.06;4978678;28;20029;-87
2023/06/04 00:02:50;;;;;;;3.40;2.10;;;;;;;17.55;74.75;101585.69;4994174;28;20061;-89
2023/06/04 00:05:15;;;;;;;3.15;2.08;;;;;;;17.43;73.03;101595.16;5010713;28;20054;-88
2023/06/04 00:07:41;;;;;;;3.17;1.88;;;;;;;17.40;74.78;101586.66;4978255;28;20029;-88
2023/06/04 00:10:06;;;;;;;3.47;2.00;;;;;;;17.54;74.91;101593.66;4978242;28;20030;-89
2023/06/04 00:12:32;;;;;;;3.55;2.13;;;;;;;17.54;75.20;101596.25;5012192;28;20022;-88
2023/06/04 00:14:57;;;;;;;9.48;2.00;;;;;;;17.52;74.91;101590.28;4978102;28;20029;-87
2023/06/04 00:17:23;;;;;;;5.90;2.35;;;;;;;17.45;72.67;101598.50;4993928;28;20033;-87
2023/06/04 00:19:48;;;;;;;4.97;2.13;;;;;;;17.39;73.58;101588.41;4994249;28;20037;-87
2023/06/04 00:22:14;;;;;;;3.10;2.00;;;;;;;17.44;74.45;101591.59;5011746;28;20487;-88
2023/06/04 00:24:40;;;;;;;11.40;2.50;;;;;;;17.32;75.90;101560.16;4977939;28;20025;-88
2023/06/04 00:27:07;;;;;;;3.90;2.40;;;;;;;17.55;77.63;101598.78;5010344;28;20064;-87
2023/06/04 00:29:32;;;;;;;4.97;2.30;;;;;;;17.54;77.87;101606.72;4993894;28;20105;-89
2023/06/04 00:31:58;;;;;;;6.07;2.35;;;;;;;17.46;77.47;101597.56;4993485;28;20037;-89
2023/06/04 00:34:23;;;;;;;7.50;2.42;;;;;;;17.40;77.56;101579.66;5011605;28;20083;-88
2023/06/04 00:36:49;;;;;;;6.40;2.20;;;;;;;17.38;79.71;101576.28;5011417;28;20506;-88
2023/06/04 00:39:14;;;;;;;4.20;2.60;;;;;;;17.51;80.58;101592.06;5010205;28;20411;-88
2023/06/04 00:41:40;;;;;;;6.32;2.90;;;;;;;17.52;79.68;101606.00;5010231;28;20084;-88
2023/06/04 00:44:06;;;;;;;4.82;2.65;;;;;;;17.56;81.38;101605.69;5010232;28;20034;-87
2023/06/04 00:46:32;;;;;;;5.90;2.40;;;;;;;17.47;81.57;101587.94;4993167;28;20095;-88
2023/06/04 00:48:57;;;;;;;6.00;2.38;;;;;;;17.62;82.60;101604.47;4993881;28;20395;-87
2023/06/04 00:51:23;;;;;;;4.03;2.50;;;;;;;17.65;82.79;101612.13;5010077;28;20045;-87
2023/06/04 00:53:49;;;;;;;5.40;2.75;;;;;;;17.54;80.80;101617.19;4993417;28;20621;-88
2023/06/04 00:56:15;;;;;;;5.38;2.47;;;;;;;17.48;78.73;101611.41;4977400;28;20511;-88
2023/06/04 00:58:41;;;;;;;4.30;2.65;;;;;;;17.41;78.28;101598.81;4993495;28;20034;-87
2023/06/04 01:01:18;;;;;;;6.82;3.10;;;;;;;17.43;78.69;101620.47;4993397;28;20029;-88
2023/06/04 01:03:46;;;;;;;4.95;2.78;;;;;;;17.20;77.81;101587.88;5011310;28;20045;-88
2023/06/04 01:06:37;;;;;;;4.72;2.33;;;;;;;17.41;77.18;101623.19;5010028;28;20060;-88
2023/06/04 01:09:03;;;;;;;4.38;1.90;;;;;;;17.20;76.45;101595.72;4993582;28;20030;-87
2023/06/04 01:11:36;;;;;;;4.53;1.98;;;;;;;17.21;75.83;101626.19;5009876;28;20022;-88
2023/06/04 01:14:02;;;;;;;6.10;2.17;;;;;;;17.21;75.47;101626.19;5010156;28;20067;-87
2023/06/04 01:16:30;;;;;;;4.22;2.10;;;;;;;17.18;75.56;101624.56;4993215;28;20483;-88
2023/06/04 01:18:59;;;;;;;3.08;2.17;;;;;;;17.07;75.90;101629.63;5009614;28;20084;-90
2023/06/04 01:21:26;;;;;;;2.78;1.85;;;;;;;16.92;75.65;101618.31;4993513;28;20029;-87
2023/06/04 01:24:01;;;;;;;2.83;2.00;;;;;;;17.00;75.70;101624.84;5009814;28;20113;-87
2023/06/04 01:26:30;;;;;;;3.97;2.10;;;;;;;16.85;75.46;101609.16;4994636;28;20431;-87
2023/06/04 01:28:56;;;;;;;3.05;2.10;;;;;;;16.98;75.38;101639.78;5009280;28;20053;-87
2023/06/04 01:31:22;;;;;;;3.88;1.92;;;;;;;16.90;75.22;101637.63;4977246;28;20041;-87
2023/06/04 01:34:00;;;;;;;4.03;2.10;;;;;;;16.82;75.79;101634.66;4993206;28;20117;-87
2023/06/04 01:36:25;;;;;;;4.45;2.25;;;;;;;16.78;75.04;101628.75;5009569;28;20030;-87
2023/06/04 01:38:51;;;;;;;2.47;1.90;;;;;;;16.65;74.81;101638.22;4993289;28;20041;-88
2023/06/04 01:41:17;;;;;;;6.22;2.15;;;;;;;16.55;75.45;101629.22;4992784;28;20037;-87
2023/06/04 01:43:42;;;;;;;4.00;1.90;;;;;;;16.54;74.87;101640.59;4992963;28;20052;-88
2023/06/04 01:46:08;;;;;;;3.30;2.10;;;;;;;16.51;75.49;101641.59;4992899;28;20033;-88
2023/06/04 01:48:33;;;;;;;2.95;1.83;;;;;;;16.37;75.05;101622.44;5009162;28;20393;-86
2023/06/04 01:50:59;;;;;;;2.78;1.90;;;;;;;16.42;75.07;101651.72;4993088;28;20026;-88
2023/06/04 01:53:24;;;;;;;5.78;2.10;;;;;;;16.37;75.41;101651.16;4993054;28;20026;-86
2023/06/04 01:55:50;;;;;;;6.53;2.17;;;;;;;16.31;75.56;101655.78;5009037;28;20037;-88
2023/06/04 01:58:27;;;;;;;3.83;2.00;;;;;;;16.22;75.25;101645.03;4994905;28;20026;-88
2023/06/04 02:00:55;;;;;;;4.68;1.75;;;;;;;16.19;75.45;101653.88;4998088;28;20415;-86
2023/06/04 02:03:22;;;;;;;2.83;2.17;;;;;;;16.28;75.38;101650.75;5012947;28;20034;-87
2023/06/04 02:05:48;;;;;;;4.35;2.15;;;;;;;16.24;76.01;101653.66;4996770;28;20071;-87
2023/06/04 02:08:20;;;;;;;4.57;1.80;;;;;;;16.26;76.11;101672.66;4980663;28;20080;-88
2023/06/04 02:10:48;;;;;;;4.40;1.92;;;;;;;16.20;76.33;101670.38;4997374;28;20411;-88
2023/06/04 02:13:14;;;;;;;2.67;1.88;;;;;;;16.31;76.22;101674.06;4979956;28;20026;-88
2023/06/04 02:15:40;;;;;;;4.57;1.83;;;;;;;16.25;74.84;101668.38;4996603;28;20033;-87
2023/06/04 02:18:16;;;;;;;4.68;1.83;;;;;;;16.27;74.95;101671.75;5012887;28;20069;-87
2023/06/04 02:20:45;;;;;;;3.13;2.05;;;;;;;16.23;74.48;101678.06;4996571;28;20030;-87
2023/06/04 02:23:11;;;;;;;4.43;1.70;;;;;;;16.31;74.34;101689.75;4980232;28;20084;-86
2023/06/04 02:25:36;;;;;;;2.70;1.48;;;;;;;16.26;74.51;101685.72;4996154;28;20385;-88
2023/06/04 02:28:02;;;;;;;6.35;1.95;;;;;;;16.34;74.14;101686.97;5012417;28;20040;-87
2023/06/04 02:30:27;;;;;;;2.22;1.23;;;;;;;16.33;73.12;101690.53;4996642;28;20030;-88
2023/06/04 02:32:54;;;;;;;2.22;1.40;;;;;;;16.28;72.89;101700.38;5012607;28;20084;-87
2023/06/04 02:35:24;;;;;;;2.95;1.88;;;;;;;16.19;73.10;101680.00;5012502;28;20113;-87
2023/06/04 02:37:50;;;;;;;4.55;1.42;;;;;;;16.23;72.66;101705.03;4980951;28;20044;-87
2023/06/04 02:40:16;;;;;;;1.80;1.23;;;;;;;16.29;73.26;101711.66;4995870;28;20121;-87
2023/06/04 02:42:42;;;;;;;3.65;1.55;;;;;;;16.16;72.93;101698.44;5011968;28;20034;-89
2023/06/04 02:45:07;;;;;;;2.78;1.73;;;;;;;16.29;73.51;101716.88;5013296;28;20526;-87
2023/06/04 02:47:33;;;;;;;2.53;1.70;;;;;;;16.01;73.07;101686.22;4979618;28;20087;-88
2023/06/04 02:49:58;;;;;;;3.22;2.10;;;;;;;16.20;73.65;101725.22;5012084;28;20045;-87
2023/06/04 02:52:25;;;;;;;2.88;1.80;;;;;;;16.10;73.82;101724.88;5011972;28;20029;-88
2023/06/04 02:54:51;;;;;;;4.78;2.05;;;;;;;16.14;73.59;101715.97;5012245;28;20022;-87
2023/06/04 02:57:16;;;;;;;2.40;1.58;;;;;;;16.16;73.80;101737.59;5011722;28;20112;-88
2023/06/04 02:59:41;;;;;;;2.22;1.40;;;;;;;16.12;74.11;101730.00;4979594;28;20034;-87
2023/06/04 03:02:07;;;;;;;2.85;1.58;;;;;;;16.00;74.30;101724.53;4995626;28;20029;-86
2023/06/04 03:04:34;;;;;;;2.35;1.65;;;;;;;16.07;75.30;101735.50;5011972;28;20423;-87
2023/06/04 03:07:04;;;;;;;3.38;1.40;;;;;;;16.02;75.13;101747.94;4979721;28;20025;-87
2023/06/04 03:09:33;;;;;;;4.88;1.45;;;;;;;15.88;74.59;101734.81;4979287;28;20545;-88
2023/06/04 03:12:02;;;;;;;1.80;1.25;;;;;;;15.84;74.96;101739.34;5011587;28;20026;-89
2023/06/04 03:14:32;;;;;;;2.15;1.60;;;;;;;15.95;74.33;101764.88;5011603;28;20026;-88
2023/06/04 03:17:01;;;;;;;5.00;1.55;;;;;;;15.84;73.84;101759.38;5011900;28;20475;-87
2023/06/04 03:19:27;;;;;;;2.53;1.52;;;;;;;15.63;73.37;101753.50;4995751;28;20021;-88
2023/06/04 03:21:53;;;;;;;3.70;1.50;;;;;;;15.63;74.02;101766.53;4995702;28;20038;-86
2023/06/04 03:24:19;;;;;;;3.35;1.73;;;;;;;15.54;73.59;101765.25;4995234;28;20511;-88
2023/06/04 03:26:44;;;;;;;2.65;1.45;;;;;;;15.49;74.01;101762.03;4994966;28;20519;-87
2023/06/04 03:29:10;;;;;;;5.35;1.42;;;;;;;15.50;73.49;101758.47;5012797;28;20030;-88
2023/06/04 03:31:35;;;;;;;2.00;1.33;;;;;;;15.50;74.25;101766.31;5011224;28;20030;-88
2023/06/04 03:34:01;;;;;;;3.40;1.80;;;;;;;15.47;74.79;101763.88;5011139;28;20049;-87
2023/06/04 03:36:31;;;;;;;2.45;1.52;;;;;;;15.48;75.19;101779.44;4978813;28;20029;-87
2023/06/04 03:38:57;;;;;;;2.47;1.48;;;;;;;15.44;75.55;101792.72;4995370;28;20034;-88
2023/06/04 03:41:23;;;;;;;7.30;1.63;;;;;;;15.42;75.36;101778.88;4978369;28;20025;-89
2023/06/04 03:43:48;;;;;;;5.72;1.75;;;;;;;15.41;76.12;101774.59;4978527;28;20030;-88
2023/06/04 03:46:14;;;;;;;3.08;1.30;;;;;;;15.37;76.74;101773.09;5011396;28;20029;-86
2023/06/04 03:48:41;;;;;;;2.30;1.42;;;;;;;15.27;76.77;101777.06;5012415;28;20037;-87
2023/06/04 03:51:07;;;;;;;2.47;1.65;;;;;;;15.26;77.30;101776.22;4994575;28;20037;-88
2023/06/04 03:53:32;;;;;;;4.55;2.28;;;;;;;15.23;77.36;101780.72;5012493;28;20037;-87
2023/06/04 03:55:58;;;;;;;5.22;1.48;;;;;;;15.15;77.82;101781.97;5010772;28;20029;-88
2023/06/04 03:58:23;;;;;;;7.72;1.73;;;;;;;15.13;78.31;101778.59;5010667;28;20033;-87
2023/06/04 04:00:49;;;;;;;1.90;1.38;;;;;;;15.09;78.11;101786.66;5011023;28;20030;-87
2023/06/04 04:03:15;;;;;;;3.00;1.92;;;;;;;15.11;78.72;101785.66;4994691;28;20389;-86
2023/06/04 04:05:40;;;;;;;3.25;1.60;;;;;;;15.09;78.17;101781.44;5010682;28;20056;-87
2023/06/04 04:08:05;;;;;;;3.95;1.80;;;;;;;15.08;78.53;101784.97;5010799;28;20443;-88
2023/06/04 04:10:31;;;;;;;2.45;1.65;;;;;;;15.10;78.45;101778.75;4978009;28;20026;-87
2023/06/04 04:12:58;;;;;;;3.08;1.50;;;;;;;15.12;78.56;101782.13;5011968;28;20435;-88
2023/06/04 04:15:23;;;;;;;3.17;2.08;;;;;;;15.18;78.68;101791.41;4978326;28;20041;-88
2023/06/04 04:17:49;;;;;;;3.47;1.52;;;;;;;15.09;77.80;101777.06;5010420;28;20034;-87
2023/06/04 04:20:16;;;;;;;2.17;1.42;;;;;;;15.05;77.85;101783.34;5009855;28;20523;-87
2023/06/04 04:22:41;;;;;;;2.63;1.50;;;;;;;15.07;77.35;101794.53;5010614;28;20026;-87
2023/06/04 04:25:08;;;;;;;1.58;1.13;;;;;;;15.10;76.99;101810.03;5010342;28;20041;-88
2023/06/04 04:27:34;;;;;;;5.38;1.52;;;;;;;15.00;76.85;101789.69;4994301;28;20521;-88
2023/06/04 04:30:00;;;;;;;2.40;1.35;;;;;;;15.13;76.57;101804.66;4994137;28;20468;-87
2023/06/04 04:32:26;;;;;;;1.70;1.05;;;;;;;15.01;76.13;101776.59;4993786;28;20037;-88
2023/06/04 04:34:53;;;;;;;3.65;1.70;;;;;;;15.16;75.81;101807.13;5011637;28;20037;-88
2023/06/04 04:37:20;;;;;;;3.70;2.00;;;;;;;15.00;76.02;101780.13;4994035;28;20026;-87
2023/06/04 04:39:46;;;;;;;3.60;1.42;;;;;;;15.13;75.71;101815.06;4978310;28;20045;-87
2023/06/04 04:42:12;;;;;;;1.55;1.13;;;;;;;15.06;75.92;101808.50;4993782;28;20555;-88
2023/06/04 04:44:37;;;;;;;3.22;1.55;;;;;;;15.07;74.95;101798.91;5010231;28;20029;-88
2023/06/04 04:47:03;;;;;;;5.57;1.42;;;;;;;14.84;74.95;101766.97;4977666;28;20030;-87
2023/06/04 04:49:28;;;;;;;2.40;1.60;;;;;;;15.05;74.59;101803.38;5011692;28;20030;-87
2023/06/04 04:51:54;;;;;;;2.33;1.48;;;;;;;15.05;74.90;101795.53;4993359;28;20480;-87
2023/06/04 04:54:19;;;;;;;2.40;1.15;;;;;;;15.00;74.50;101782.72;5010173;28;20038;-88
2023/06/04 04:56:45;;;;;;;1.83;1.35;;;;;;;15.09;74.14;101794.47;5010093;28;20041;-87
2023/06/04 04:59:10;;;;;;;3.08;1.52;;;;;;;15.12;74.27;101802.97;5009779;28;20034;-87
2023/06/04 05:01:36;;;;;;;2.22;1.33;;;;;;;15.11;74.19;101809.09;5010010;28;20545;-87
2023/06/04 05:04:01;;;;;;;2.15;1.50;;;;;;;15.18;74.10;101812.25;5011142;28;20053;-87
2023/06/04 05:06:27;;;;;;;3.38;1.33;;;;;;;15.05;73.90;101800.75;5009639;28;20029;-87
2023/06/04 05:08:52;;;;;;;2.65;1.80;;;;;;;15.03;74.15;101785.16;5009991;28;20084;-87
2023/06/04 05:11:17;;;;;;;6.50;1.48;;;;;;;15.14;74.41;101810.72;5010128;28;20502;-87
2023/06/04 05:13:43;;;;;;;1.98;1.10;;;;;;;15.11;74.40;101801.28;4993557;28;20412;-88
2023/06/04 05:16:11;;;;;;;4.97;1.83;;;;;;;15.23;74.23;101825.06;5011065;28;20033;-88
2023/06/04 05:18:44;;;;;;;2.20;1.20;;;;;;;15.28;74.65;101823.06;4993835;28;20018;-89
2023/06/04 05:21:11;;;;;;;2.55;1.55;;;;;;;15.28;74.14;101815.25;4978119;28;20088;-87
2023/06/04 05:23:37;;;;;;;4.20;1.85;;;;;;;15.30;74.13;101810.81;5009815;28;20499;-88
2023/06/04 05:26:03;;;;;;;8.18;2.17;;;;;;;15.33;74.14;101815.84;4993550;28;20037;-87
2023/06/04 05:28:28;;;;;;;3.00;1.70;;;;;;;15.29;74.35;101814.34;4993275;28;20500;-88
2023/06/04 05:30:58;;;;;;;1.83;1.52;;;;;;;15.18;74.96;101786.19;5009511;28;20025;-87
2023/06/04 05:33:25;;;;;;;6.88;2.33;;;;;;;15.39;75.22;101833.81;5014537;28;20037;-86
2023/06/04 05:35:51;;;;;;;4.40;1.90;;;;;;;15.38;75.27;101834.75;4980729;28;20519;-87
2023/06/04 05:38:20;;;;;;;3.85;2.15;;;;;;;15.35;75.58;101827.06;4997494;28;20479;-86
2023/06/04 05:40:46;;;;;;;3.20;2.05;;;;;;;15.34;76.25;101838.41;5013445;28;20080;-87
2023/06/04 05:43:11;;;;;;;6.43;2.33;;;;;;;15.33;76.47;101837.56;4980740;28;20061;-87
2023/06/04 05:45:37;;;;;;;3.35;2.03;;;;;;;15.31;76.74;101831.59;5013335;28;20431;-87
2023/06/04 05:48:03;;;;;;;3.45;1.75;;;;;;;15.42;76.72;101850.13;4996854;28;20196;-87
2023/06/04 05:50:30;;;;;;;3.00;1.92;;;;;;;15.40;77.36;101838.94;5014198;28;20033;-88
2023/06/04 05:52:56;;;;;;;4.25;2.40;;;;;;;15.46;76.76;101837.81;5013684;28;20510;-87
2023/06/04 05:55:21;;;;;;;4.88;2.05;;;;;;;15.39;77.18;101826.00;4996780;28;20484;-88
2023/06/04 05:57:47;;;;;;;4.03;2.08;;;;;;;15.47;77.09;101829.91;4997201;28;20034;-88
2023/06/04 06:00:13;;;;;;;2.88;2.00;;;;;;;15.49;77.21;101824.59;5013108;28;20029;-88
2023/06/04 06:02:38;;;;;;;3.22;1.80;;;;;;;15.63;77.43;101834.38;4997129;28;20030;-87
2023/06/04 06:05:06;;;;;;;3.30;1.90;;;;;;;15.54;76.64;101825.22;4996311;28;20120;-86
2023/06/04 06:07:32;;;;;;;3.75;2.10;;;;;;;15.74;77.04;101853.78;5013041;28;20037;-88
2023/06/04 06:09:57;;;;;;;2.55;2.20;;;;;;;15.78;77.23;101844.03;5012764;28;20022;-87
2023/06/04 06:12:23;;;;;;;5.18;1.63;;;;;;;15.75;77.16;101841.59;4996989;28;20447;-89
2023/06/04 06:14:48;;;;;;;3.33;1.80;;;;;;;15.75;76.79;101826.78;4996416;28;20037;-86
2023/06/04 06:17:14;;;;;;;2.70;1.58;;;;;;;15.64;77.17;101823.88;5013954;28;20026;-88
2023/06/04 06:19:40;;;;;;;2.83;1.65;;;;;;;15.89;77.63;101859.13;5012400;28;20462;-88
2023/06/04 06:22:05;;;;;;;5.63;2.22;;;;;;;15.91;77.33;101854.66;5012884;28;20061;-88
2023/06/04 06:24:30;;;;;;;3.97;2.10;;;;;;;15.98;77.99;101866.47;4996519;28;20034;-87
2023/06/04 06:26:56;;;;;;;3.10;2.13;;;;;;;16.04;77.90;101860.97;5012419;28;20036;-87
2023/06/04 06:29:21;;;;;;;5.68;2.05;;;;;;;15.94;77.83;101854.53;5012681;28;20030;-87
2023/06/04 06:31:47;;;;;;;3.15;1.98;;;;;;;16.04;77.39;101863.56;5013536;28;20030;-88
2023/06/04 06:34:12;;;;;;;3.70;1.98;;;;;;;16.03;77.39;101862.72;4996107;28;20041;-88
2023/06/04 06:36:38;;;;;;;3.55;2.28;;;;;;;15.97;76.77;101863.03;5013431;28;20022;-88
2023/06/04 06:39:03;;;;;;;3.70;2.03;;;;;;;16.04;76.67;101850.53;4996095;28;20041;-87
2023/06/04 06:41:30;;;;;;;3.67;1.92;;;;;;;16.13;76.08;101880.53;4995900;28;20026;-87
2023/06/04 06:43:56;;;;;;;3.75;2.20;;;;;;;16.03;75.80;101852.28;4995359;28;20033;-88
2023/06/04 06:46:22;;;;;;;3.38;1.83;;;;;;;16.11;76.03;101870.13;4996376;28;20030;-87
2023/06/04 06:48:48;;;;;;;3.13;2.10;;;;;;;16.10;75.54;101880.66;4995702;28;20034;-88
2023/06/04 06:51:13;;;;;;;2.88;1.77;;;;;;;15.95;75.61;101864.88;4995950;28;20431;-87
2023/06/04 06:53:39;;;;;;;2.30;1.48;;;;;;;16.12;75.50;101876.19;4995823;28;20041;-87
2023/06/04 06:56:05;;;;;;;2.75;1.80;;;;;;;16.12;75.74;101884.88;5012002;28;20032;-86
2023/06/04 06:58:31;;;;;;;2.80;1.80;;;;;;;16.00;75.19;101875.06;4995679;28;20033;-88
2023/06/04 07:00:56;;;;;;;7.32;1.75;;;;;;;16.01;75.12;101876.75;5013038;28;20026;-88
2023/06/04 07:03:22;;;;;;;2.65;1.60;;;;;;;16.06;75.23;101882.59;5011482;28;20411;-86
2023/06/04 07:05:47;;;;;;;3.58;2.08;;;;;;;16.06;75.68;101890.44;4995515;28;20096;-88
2023/06/04 07:08:13;;;;;;;3.30;2.28;;;;;;;16.09;75.33;101886.81;5013112;28;20030;-88
2023/06/04 07:10:38;;;;;;;2.75;1.70;;;;;;;16.02;75.37;101878.44;5011845;28;20068;-87
2023/06/04 07:13:04;;;;;;;3.90;1.90;;;;;;;16.21;75.53;101899.22;4995447;28;20033;-88
2023/06/04 07:15:29;;;;;;;6.63;2.40;;;;;;;16.14;75.63;101898.72;5012975;28;20040;-87
2023/06/04 07:17:55;;;;;;;4.07;1.90;;;;;;;16.16;75.26;101888.19;4995181;28;20026;-87
2023/06/04 07:20:21;;;;;;;2.97;1.83;;;;;;;16.24;74.87;101894.69;4979130;28;20450;-88
2023/06/04 07:22:46;;;;;;;3.60;2.17;;;;;;;16.08;74.76;101864.25;4995216;28;20488;-88
2023/06/04 07:25:12;;;;;;;3.13;1.67;;;;;;;16.40;74.51;101905.16;5011931;28;20034;-87
2023/06/04 07:27:37;;;;;;;3.42;1.70;;;;;;;16.43;73.92;101912.00;4995305;28;20033;-87
2023/06/04 07:30:03;;;;;;;3.22;1.60;;;;;;;16.35;73.21;101909.78;5012107;28;20034;-90
2023/06/04 07:32:28;;;;;;;3.40;2.30;;;;;;;16.34;73.41;101906.34;4994801;28;20034;-89
2023/06/04 07:34:54;;;;;;;3.33;2.10;;;;;;;16.40;73.15;101912.16;5011529;28;20033;-88
2023/06/04 07:37:19;;;;;;;3.33;1.98;;;;;;;16.49;72.94;101929.94;5013715;28;20067;-87
2023/06/04 07:39:45;;;;;;;3.65;1.77;;;;;;;16.50;71.70;101922.03;4978942;28;20033;-88
2023/06/04 07:42:10;;;;;;;5.50;1.65;;;;;;;16.35;70.62;101931.53;5010728;28;20029;-87
2023/06/04 07:44:36;;;;;;;2.20;1.17;;;;;;;16.27;71.14;101928.47;5011048;28;20030;-88
2023/06/04 07:47:02;;;;;;;1.65;1.13;;;;;;;16.27;70.76;101932.84;4994328;28;20029;-88
2023/06/04 07:49:27;;;;;;;3.58;1.90;;;;;;;16.25;70.83;101932.94;4994889;28;20033;-88
2023/06/04 07:51:53;;;;;;;2.63;1.55;;;;;;;16.19;70.62;101935.84;5011073;28;20472;-87
2023/06/04 07:54:18;;;;;;;3.95;1.90;;;;;;;16.14;70.79;101948.31;4995073;28;20388;-88
2023/06/04 07:56:44;;;;;;;2.65;1.67;;;;;;;16.04;70.69;101939.25;5011034;28;20037;-86
2023/06/04 07:59:09;;;;;;;6.00;1.35;;;;;;;16.20;70.80;101947.97;5010936;28;20052;-88
2023/06/04 08:01:35;;;;;;;2.30;1.38;;;;;;;16.16;70.95;101935.19;5012069;28;20026;-88
2023/06/04 08:04:00;;;;;;;3.63;1.38;;;;;;;16.23;71.15;101945.22;4994297;28;20057;-86
2023/06/04 08:06:26;;;;;;;2.20;1.75;;;;;;;16.29;70.98;101944.06;4995061;28;20037;-87
2023/06/04 08:08:52;;;;;;;2.45;1.65;;;;;;;16.13;70.60;101928.34;5010626;28;20456;-88
2023/06/04 08:11:17;;;;;;;2.42;1.48;;;;;;;16.15;70.97;101949.16;5010735;28;20026;-87
2023/06/04 08:13:42;;;;;;;3.53;1.48;;;;;;;16.26;71.20;101949.44;4994468;28;20436;-88
2023/06/04 08:16:09;;;;;;;2.10;1.40;;;;;;;16.28;71.84;101966.72;5010348;28;20044;-87
2023/06/04 08:18:38;;;;;;;2.85;1.60;;;;;;;16.28;71.90;101964.09;4994390;28;20022;-87
2023/06/04 08:21:03;;;;;;;4.40;1.52;;;;;;;16.31;70.69;101963.09;4994267;28;20472;-87
2023/06/04 08:23:29;;;;;;;7.40;1.60;;;;;;;16.46;70.33;101974.53;4994172;28;20026;-87
2023/06/04 08:25:55;;;;;;;3.78;1.65;;;;;;;16.41;68.78;101971.28;4994043;28;20427;-88
2023/06/04 08:28:20;;;;;;;3.63;1.92;;;;;;;16.34;68.62;101968.19;5010262;28;20034;-88
2023/06/04 08:30:46;;;;;;;5.47;2.20;;;;;;;16.46;69.54;101987.59;5011486;28;20088;-88
2023/06/04 08:33:11;;;;;;;3.85;2.05;;;;;;;16.46;68.95;101982.38;5010283;28;20022;-88
2023/06/04 08:35:37;;;;;;;2.80;1.65;;;;;;;16.43;70.13;101987.75;4993656;28;20038;-89
2023/06/04 08:38:02;;;;;;;2.97;1.83;;;;;;;16.45;70.73;101997.19;4977496;28;20072;-87
2023/06/04 08:40:28;;;;;;;3.53;1.75;;;;;;;16.43;70.17;101990.38;4994284;28;20034;-88
2023/06/04 08:42:58;;;;;;;7.85;1.88;;;;;;;16.40;69.91;101993.13;4994325;28;20037;-87
2023/06/04 08:45:23;;;;;;;4.72;1.70;;;;;;;16.28;70.71;101990.22;5009715;28;20034;-88
2023/06/04 08:47:49;;;;;;;4.13;2.22;;;;;;;16.26;70.80;101986.84;4994143;28;20037;-87
2023/06/04 08:50:20;;;;;;;3.95;2.45;;;;;;;16.23;72.35;101996.63;4993665;28;20403;-88
2023/06/04 08:52:46;;;;;;;8.93;2.78;;;;;;;16.24;72.83;101995.69;4993911;28;20026;-88
2023/06/04 08:55:13;;;;;;;8.13;2.65;;;;;;;16.17;73.71;101989.06;4993763;28;20059;-89
2023/06/04 08:57:39;;;;;;;3.92;2.15;;;;;;;16.22;74.48;101993.16;4993578;28;20108;-87
2023/06/04 09:00:07;;;;;;;3.97;2.03;;;;;;;16.14;71.41;102003.13;4977288;28;20034;-87
2023/06/04 09:02:37;;;;;;;6.07;2.08;;;;;;;16.11;73.03;101998.06;5009753;28;20030;-88
2023/06/04 09:05:04;;;;;;;2.45;1.38;;;;;;;16.17;70.10;102004.75;5010514;28;20050;-88
2023/06/04 09:07:29;;;;;;;5.05;1.42;;;;;;;16.21;71.04;101993.22;4993076;28;21267;-88
2023/06/04 09:09:55;;;;;;;5.03;1.52;;;;;;;16.27;71.54;101988.53;4993660;28;20022;-89
2023/06/04 09:12:23;;;;;;;6.22;1.65;;;;;;;16.23;71.69;101967.88;4993366;28;20044;-88
2023/06/04 09:14:50;;;;;;;2.47;1.67;;;;;;;16.46;70.04;102003.25;5009732;28;20034;-88
2023/06/04 09:17:20;;;;;;;4.07;2.05;;;;;;;16.44;72.36;102002.50;4993826;28;20026;-89
2023/06/04 09:19:46;;;;;;;5.15;1.67;;;;;;;16.45;71.92;101998.97;5009820;28;20034;-87
2023/06/04 09:22:11;;;;;;;3.08;1.60;;;;;;;16.50;71.82;102005.63;4993473;28;20403;-89
2023/06/04 09:24:41;;;;;;;6.63;1.85;;;;;;;16.45;72.34;102006.78;5010706;28;20034;-88
2023/06/04 09:27:11;;;;;;;2.53;1.50;;;;;;;16.40;69.38;102003.56;5009821;28;20403;-88
2023/06/04 09:29:37;;;;;;;2.22;1.50;;;;;;;16.43;69.39;102003.44;5009241;28;20096;-88
2023/06/04 09:32:03;;;;;;;2.78;1.60;;;;;;;16.45;68.20;102012.88;5009683;28;20439;-88
2023/06/04 09:34:28;;;;;;;4.57;1.75;;;;;;;16.35;67.74;101994.22;4977310;28;20042;-89
2023/06/04 09:36:54;;;;;;;16.08;1.52;;;;;;;16.23;68.31;101997.47;4976783;28;20426;-88
2023/06/04 09:39:20;;;;;;;7.85;1.77;;;;;;;16.48;69.26;102011.84;4993590;28;20030;-87
2023/06/04 09:41:57;;;;;;;3.58;2.03;;;;;;;16.56;68.93;102020.16;4993233;28;20041;-88
2023/06/04 09:44:22;;;;;;;2.83;1.73;;;;;;;16.37;67.69;101993.28;5009409;28;20033;-88
2023/06/04 09:46:57;;;;;;;3.13;2.00;;;;;;;16.55;68.01;102010.63;5010804;28;20033;-87
2023/06/04 09:49:23;;;;;;;4.70;1.70;;;;;;;16.61;68.39;102007.66;4993365;28;20053;-91
2023/06/04 09:51:48;;;;;;;2.45;1.63;;;;;;;16.61;68.63;102020.72;5009560;28;20527;-90
2023/06/04 09:54:14;;;;;;;5.10;2.05;;;;;;;16.58;69.33;102002.63;4993208;28;20029;-88
2023/06/04 09:56:42;;;;;;;3.50;1.67;;;;;;;16.68;68.36;102019.53;4992460;28;20450;-88
2023/06/04 09:59:10;;;;;;;2.95;1.80;;;;;;;16.66;69.31;102021.34;4993257;28;20483;-87
2023/06/04 10:01:39;;;;;;;4.32;1.88;;;;;;;16.67;69.44;102017.81;5009234;28;20022;-89
2023/06/04 10:04:06;;;;;;;4.93;2.30;;;;;;;16.69;69.74;102005.53;4993188;28;20636;-89
2023/06/04 10:06:35;;;;;;;2.65;1.63;;;;;;;16.81;69.22;102004.91;5009420;28;20033;-89
2023/06/04 10:09:05;;;;;;;5.13;1.65;;;;;;;16.96;68.71;102012.84;4976950;28;20029;-87
2023/06/04 10:11:35;;;;;;;4.30;1.88;;;;;;;16.86;66.89;102023.78;5009371;28;20057;-88
2023/06/04 10:14:04;;;;;;;3.97;1.33;;;;;;;16.82;64.14;102019.66;4993261;28;20100;-88
2023/06/04 10:16:31;;;;;;;4.13;1.30;;;;;;;16.61;62.77;102002.44;4993172;28;20026;-88
2023/06/04 10:18:56;;;;;;;3.13;1.17;;;;;;;16.82;63.93;102014.44;4978425;28;20062;-88
2023/06/04 10:21:23;;;;;;;2.42;1.48;;;;;;;16.86;61.63;102017.72;5012940;28;20036;-89
2023/06/04 10:23:49;;;;;;;2.42;1.38;;;;;;;16.83;61.72;101995.22;4996477;28;20061;-88
2023/06/04 10:26:15;;;;;;;1.65;1.20;;;;;;;17.00;62.39;102022.19;4980178;28;20104;-88
2023/06/04 10:28:41;;;;;;;2.03;0.90;;;;;;;16.99;62.02;102012.66;4996838;28;20029;-89
2023/06/04 10:31:06;;;;;;;2.15;1.20;;;;;;;17.01;62.79;102005.59;4980150;28;20040;-88
2023/06/04 10:33:32;;;;;;;3.42;1.48;;;;;;;17.08;62.93;102018.25;4996398;28;20030;-90
2023/06/04 10:35:57;;;;;;;2.00;1.15;;;;;;;17.13;63.67;102007.56;5012511;28;20041;-88
2023/06/04 10:38:23;;;;;;;1.90;1.08;;;;;;;16.98;63.08;101980.47;4996199;28;20100;-89
2023/06/04 10:40:48;;;;;;;1.85;1.20;;;;;;;17.21;62.95;102013.22;5013519;28;20030;-88
2023/06/04 10:43:15;;;;;;;2.50;1.65;;;;;;;17.13;62.59;102013.63;5012832;28;20030;-88
2023/06/04 10:45:41;;;;;;;2.33;1.30;;;;;;;17.18;63.94;102008.13;4996165;28;20396;-88
2023/06/04 10:48:12;;;;;;;2.20;1.40;;;;;;;17.20;63.60;102017.56;4979840;28;20079;-88
2023/06/04 10:50:53;;;;;;;2.10;1.45;;;;;;;17.22;63.62;102021.91;4980555;28;20088;-87
2023/06/04 10:53:19;;;;;;;5.15;1.40;;;;;;;17.07;63.27;102015.72;4995646;28;20026;-87
2023/06/04 10:55:48;;;;;;;3.25;1.60;;;;;;;17.05;64.31;102021.03;4979497;28;20068;-88
2023/06/04 10:58:14;;;;;;;3.65;1.30;;;;;;;16.97;64.46;102010.16;4996339;28;20504;-87
2023/06/04 11:00:46;;;;;;;1.20;0.90;;;;;;;16.94;63.79;102026.00;4995988;28;20030;-88
2023/06/04 11:03:11;;;;;;;2.10;1.30;;;;;;;16.73;64.24;102001.84;5011884;28;20034;-88
2023/06/04 11:05:42;;;;;;;5.35;1.17;;;;;;;16.87;63.71;102022.03;5011846;28;20057;-87
2023/06/04 11:08:08;;;;;;;5.35;1.70;;;;;;;16.94;64.44;102026.00;5011877;28;20029;-89
2023/06/04 11:10:35;;;;;;;5.90;1.42;;;;;;;16.89;63.85;102013.16;4995824;28;20132;-88
2023/06/04 11:13:01;;;;;;;2.92;1.70;;;;;;;16.90;63.80;102007.00;5011949;28;20036;-89
2023/06/04 11:15:26;;;;;;;6.22;1.85;;;;;;;16.88;64.15;102006.25;5011795;28;20417;-89
2023/06/04 11:17:57;;;;;;;3.97;1.60;;;;;;;17.06;63.92;102014.88;4995436;28;20034;-87
2023/06/04 11:20:23;;;;;;;1.98;1.40;;;;;;;17.08;62.91;102017.41;4980017;28;20084;-88